Time;durP1;ratioP1;P1;durP2;ratioP2;P2;SDS_P1;SDS_P2;PMS_P1;PMS_P2;Temp;Humidity;BMP_temperature;BMP_pressure;BME280_temperature;BME280_humidity;BME280_pressure;Samples;Min_cycle;Max_cycle;Signal;HPM_P1;HPM_P2
2022/04/12 00:02:36;;;;;;;7.53;4.70;;;;;;;12.51;46.85;98542.81;7031832;28;20229;-78
2022/04/12 00:05:58;;;;;;;6.20;4.27;;;;;;;12.55;46.79;98544.00;7031488;28;20266;-78
2022/04/12 00:09:19;;;;;;;4.23;3.83;;;;;;;12.63;46.78;98534.78;7031878;28;20275;-78
2022/04/12 00:12:41;;;;;;;4.60;3.60;;;;;;;12.61;46.04;98504.41;7032058;28;20307;-78
2022/04/12 00:16:03;;;;;;;6.10;4.27;;;;;;;12.58;46.49;98530.03;7031424;28;20197;-79
2022/04/12 00:19:25;;;;;;;4.53;4.03;;;;;;;12.17;47.35;98529.81;7031545;28;20270;-78
2022/04/12 00:22:47;;;;;;;4.87;4.10;;;;;;;12.32;46.82;98521.34;7031646;28;20720;-78
2022/04/12 00:26:08;;;;;;;4.57;4.17;;;;;;;11.82;48.44;98514.34;7029020;28;20717;-78
2022/04/12 00:29:30;;;;;;;5.37;4.10;;;;;;;12.24;47.30;98524.34;7031183;28;20745;-78
2022/04/12 00:32:52;;;;;;;5.63;4.00;;;;;;;11.65;48.86;98518.63;7030952;28;20230;-78
2022/04/12 00:36:15;;;;;;;5.97;4.23;;;;;;;12.08;48.08;98527.63;7030985;28;20213;-78
2022/04/12 00:39:37;;;;;;;4.77;3.93;;;;;;;12.13;47.94;98536.72;7031235;28;20236;-78
2022/04/12 00:43:04;;;;;;;7.40;4.50;;;;;;;12.04;48.05;98535.34;7031041;28;20296;-78
2022/04/12 00:46:25;;;;;;;6.77;4.13;;;;;;;12.16;47.47;98543.56;7030242;28;20196;-78
2022/04/12 00:49:47;;;;;;;4.83;4.33;;;;;;;11.94;48.05;98515.28;7031060;28;20275;-78
2022/04/12 00:53:10;;;;;;;5.87;4.90;;;;;;;12.27;47.73;98542.84;7030857;28;20298;-78
2022/04/12 00:56:31;;;;;;;4.47;3.53;;;;;;;12.30;46.83;98529.72;7029830;28;20295;-78
2022/04/12 00:59:54;;;;;;;5.07;3.70;;;;;;;12.28;46.78;98531.00;7030191;28;20240;-78
2022/04/12 01:03:16;;;;;;;6.80;4.00;;;;;;;11.87;47.35;98514.50;7030044;28;20299;-78
2022/04/12 01:06:38;;;;;;;4.17;3.83;;;;;;;11.53;49.51;98536.53;7030020;28;20638;-78
2022/04/12 01:10:01;;;;;;;4.53;3.93;;;;;;;11.22;49.57;98514.94;7030091;28;20229;-77
2022/04/12 01:13:23;;;;;;;4.80;3.97;;;;;;;10.95;50.45;98486.41;7030166;28;20288;-78
2022/04/12 01:16:45;;;;;;;4.50;4.10;;;;;;;11.47;49.64;98522.06;7027473;28;20367;-78
2022/04/12 01:20:08;;;;;;;4.57;3.60;;;;;;;11.25;50.01;98536.91;7001795;28;20221;-80
2022/04/12 01:23:34;;;;;;;4.73;4.23;;;;;;;11.31;50.26;98521.72;7003448;28;20605;-80
2022/04/12 01:26:58;;;;;;;4.27;3.87;;;;;;;11.12;50.40;98530.75;7002451;28;20186;-80
2022/04/12 01:30:20;;;;;;;4.63;4.23;;;;;;;11.25;50.01;98522.56;7003047;28;20406;-78
2022/04/12 01:33:41;;;;;;;5.63;3.50;;;;;;;10.84;51.45;98533.78;7004344;28;20620;-80
2022/04/12 01:37:03;;;;;;;4.87;4.37;;;;;;;10.78;51.65;98528.41;7003031;28;20314;-80
2022/04/12 01:40:25;;;;;;;6.63;4.13;;;;;;;10.90;51.30;98537.47;7003996;28;20233;-80
2022/04/12 01:43:48;;;;;;;5.87;4.23;;;;;;;10.77;51.23;98532.13;7004959;28;20362;-80
2022/04/12 01:47:09;;;;;;;5.77;4.33;;;;;;;10.85;51.79;98535.44;7004043;28;20213;-80
2022/04/12 01:50:31;;;;;;;3.80;3.50;;;;;;;11.05;50.51;98533.47;7005451;28;20221;-80
2022/04/12 01:53:52;;;;;;;6.33;4.10;;;;;;;10.86;51.52;98538.97;7006225;28;20841;-79
2022/04/12 01:57:14;;;;;;;5.23;3.93;;;;;;;10.95;50.65;98524.19;7015963;28;20252;-80
2022/04/12 02:00:37;;;;;;;5.17;4.20;;;;;;;10.10;52.68;98543.25;7024805;28;20205;-80
2022/04/12 02:03:58;;;;;;;6.30;4.10;;;;;;;10.58;52.45;98539.25;7018481;28;20217;-80
2022/04/12 02:07:20;;;;;;;5.77;4.10;;;;;;;10.34;52.67;98526.44;7001752;28;20297;-80
2022/04/12 02:10:41;;;;;;;4.63;4.23;;;;;;;10.39;50.82;98439.59;7002396;28;20264;-80
2022/04/12 02:14:03;;;;;;;4.73;4.33;;;;;;;10.73;51.06;98515.56;7002457;28;20296;-80
2022/04/12 02:17:26;;;;;;;4.73;4.17;;;;;;;10.90;51.33;98524.84;7001430;28;20233;-80
2022/04/12 02:20:47;;;;;;;5.33;3.80;;;;;;;10.67;51.25;98532.59;7002240;28;20705;-80
2022/04/12 02:24:09;;;;;;;4.43;3.77;;;;;;;9.99;52.37;98499.97;7000807;28;20233;-80
2022/04/12 02:27:31;;;;;;;4.97;3.80;;;;;;;10.24;52.12;98493.75;7001471;28;20735;-81
2022/04/12 02:30:52;;;;;;;4.57;3.87;;;;;;;10.48;51.95;98530.78;7001987;28;20974;-80
2022/04/12 02:34:15;;;;;;;4.23;3.83;;;;;;;10.06;53.13;98533.97;7002684;28;20244;-80
2022/04/12 02:37:37;;;;;;;4.50;4.10;;;;;;;10.22;52.32;98486.91;7002538;28;20705;-80
2022/04/12 02:40:59;;;;;;;5.90;3.90;;;;;;;10.77;51.18;98515.97;7004247;28;20225;-80
2022/04/12 02:44:20;;;;;;;4.20;3.80;;;;;;;10.48;51.91;98516.47;7003775;28;20198;-80
2022/04/12 02:47:42;;;;;;;5.03;4.20;;;;;;;10.48;51.68;98516.47;7003309;28;20348;-80
2022/04/12 02:51:05;;;;;;;4.27;3.90;;;;;;;10.35;51.52;98481.47;7007685;28;20230;-80
2022/04/12 02:54:26;;;;;;;5.93;3.87;;;;;;;10.47;51.65;98521.06;7008849;28;20201;-80
2022/04/12 02:57:48;;;;;;;5.80;3.93;;;;;;;10.27;52.30;98514.03;7008881;28;20225;-80
2022/04/12 03:01:09;;;;;;;4.37;3.83;;;;;;;10.45;52.16;98520.41;7009916;28;20237;-80
2022/04/12 03:04:31;;;;;;;4.93;4.50;;;;;;;10.61;51.50;98514.56;7008681;28;20590;-80
2022/04/12 03:07:54;;;;;;;4.43;3.97;;;;;;;10.60;51.34;98522.84;7008553;28;20206;-80
2022/04/12 03:11:16;;;;;;;4.13;3.73;;;;;;;10.87;50.24;98519.84;7008885;28;20324;-80
2022/04/12 03:14:37;;;;;;;4.23;3.83;;;;;;;10.79;50.27;98517.41;7009092;28;20205;-79
2022/04/12 03:17:59;;;;;;;4.50;4.10;;;;;;;10.57;50.47;98515.22;7007655;28;20232;-79
2022/04/12 03:21:20;;;;;;;4.73;4.20;;;;;;;10.57;50.59;98507.94;7008521;28;20308;-80
2022/04/12 03:24:44;;;;;;;5.57;4.53;;;;;;;10.39;51.33;98509.66;7007228;28;20573;-83
2022/04/12 03:28:06;;;;;;;6.43;4.17;;;;;;;10.22;51.60;98487.72;7005140;28;20190;-83
2022/04/12 03:31:28;;;;;;;7.03;4.77;;;;;;;9.45;53.96;98516.28;7006326;28;20236;-80
2022/04/12 03:34:50;;;;;;;6.37;4.43;;;;;;;8.92;54.49;98475.22;7008408;28;20212;-80
2022/04/12 03:38:13;;;;;;;7.93;4.23;;;;;;;9.77;53.33;98511.97;7006631;28;20702;-80
2022/04/12 03:41:36;;;;;;;5.17;4.37;;;;;;;9.43;54.18;98506.75;7008095;28;20724;-81
2022/04/12 03:44:58;;;;;;;6.93;4.67;;;;;;;9.69;53.90;98506.81;7007601;28;20227;-80
2022/04/12 03:48:19;;;;;;;5.30;4.57;;;;;;;9.88;52.69;98514.88;7007311;28;20202;-81
2022/04/12 03:51:41;;;;;;;5.30;4.23;;;;;;;10.20;51.84;98508.66;7007225;28;20245;-80
2022/04/12 03:55:04;;;;;;;6.07;4.13;;;;;;;10.11;52.18;98507.22;7007935;28;20194;-80
2022/04/12 03:58:27;;;;;;;4.60;4.20;;;;;;;9.76;53.31;98508.47;7006220;28;20323;-83
2022/04/12 04:01:49;;;;;;;4.80;4.10;;;;;;;9.86;51.92;98498.09;7003758;28;20216;-83
2022/04/12 04:05:11;;;;;;;7.20;4.87;;;;;;;9.95;52.61;98515.69;7026749;28;20238;-83
2022/04/12 04:08:32;;;;;;;4.90;4.53;;;;;;;9.85;53.02;98519.81;7032053;28;20201;-83
2022/04/12 04:11:56;;;;;;;5.83;4.60;;;;;;;9.85;53.01;98515.28;7032570;28;20380;-83
2022/04/12 04:15:18;;;;;;;8.13;4.87;;;;;;;10.01;52.42;98508.66;7032615;28;20654;-82
2022/04/12 04:18:40;;;;;;;4.90;4.40;;;;;;;9.73;53.13;98506.16;7032715;28;20217;-80
2022/04/12 04:22:02;;;;;;;5.53;4.93;;;;;;;9.81;52.81;98494.38;7034489;28;20201;-80
2022/04/12 04:25:25;;;;;;;8.10;4.67;;;;;;;9.83;53.46;98503.06;7032954;28;20279;-84
2022/04/12 04:28:48;;;;;;;5.07;4.60;;;;;;;9.77;52.44;98471.59;7033541;28;20228;-81
2022/04/12 04:32:12;;;;;;;5.90;4.83;;;;;;;9.97;52.53;98499.31;7033487;28;20201;-83
2022/04/12 04:35:33;;;;;;;7.03;4.57;;;;;;;9.97;52.37;98496.63;7014018;28;20260;-82
2022/04/12 04:38:55;;;;;;;5.33;4.73;;;;;;;9.90;52.74;98485.88;7014880;28;20235;-82
2022/04/12 04:42:16;;;;;;;5.47;4.60;;;;;;;10.07;52.09;98497.91;7011517;28;20247;-83
2022/04/12 04:45:38;;;;;;;4.90;4.47;;;;;;;10.02;52.46;98502.22;7014671;28;20279;-83
2022/04/12 04:49:01;;;;;;;4.70;4.30;;;;;;;10.17;52.02;98519.03;7030915;28;20221;-82
2022/04/12 04:52:24;;;;;;;8.43;4.50;;;;;;;9.84;52.22;98467.03;7012524;28;20247;-82
2022/04/12 04:55:47;;;;;;;7.57;5.27;;;;;;;9.81;52.30;98500.56;7006155;28;20210;-82
2022/04/12 04:59:10;;;;;;;7.03;4.83;;;;;;;9.69;52.92;98510.31;7006033;28;20682;-83
2022/04/12 05:02:33;;;;;;;7.47;4.97;;;;;;;9.69;53.51;98504.91;7013961;28;20205;-82
2022/04/12 05:05:56;;;;;;;6.17;4.60;;;;;;;9.91;52.05;98460.59;7035167;28;20205;-83
2022/04/12 05:09:17;;;;;;;5.10;4.60;;;;;;;10.07;52.18;98505.16;7032250;28;20225;-82
2022/04/12 05:12:39;;;;;;;5.87;4.63;;;;;;;10.21;51.77;98502.22;7004517;28;20682;-83
2022/04/12 05:16:00;;;;;;;5.33;4.67;;;;;;;9.58;52.51;98477.81;7003575;28;20210;-82
2022/04/12 05:19:22;;;;;;;4.97;4.57;;;;;;;9.62;53.43;98503.28;7014063;28;20225;-83
2022/04/12 05:22:45;;;;;;;8.80;5.10;;;;;;;9.93;52.42;98498.09;7032652;28;20216;-83
2022/04/12 05:26:07;;;;;;;5.67;5.03;;;;;;;9.58;52.99;98497.47;7029533;28;20205;-83
2022/04/12 05:29:28;;;;;;;6.00;4.87;;;;;;;9.85;52.59;98490.22;7033561;28;20225;-83
2022/04/12 05:32:50;;;;;;;5.00;4.40;;;;;;;9.65;51.99;98432.88;7034741;28;20205;-83
2022/04/12 05:36:11;;;;;;;6.80;4.77;;;;;;;9.21;54.09;98503.41;7038906;28;20214;-82
2022/04/12 05:39:35;;;;;;;5.00;4.50;;;;;;;9.77;54.32;98495.81;7034365;28;20229;-82
2022/04/12 05:42:56;;;;;;;5.20;4.70;;;;;;;10.49;52.26;98508.19;7033121;28;20215;-82
2022/04/12 05:46:18;;;;;;;7.43;4.83;;;;;;;11.05;50.48;98478.69;7014440;28;20213;-82
2022/04/12 05:49:40;;;;;;;7.90;4.67;;;;;;;11.33;49.90;98479.97;7004717;28;20225;-82
2022/04/12 05:53:02;;;;;;;7.87;4.80;;;;;;;11.73;48.72;98504.84;7005097;28;20198;-83
2022/04/12 05:56:25;;;;;;;5.23;4.70;;;;;;;11.66;48.88;98501.38;7004468;28;20201;-82
2022/04/12 05:59:46;;;;;;;4.53;4.13;;;;;;;12.18;49.44;98520.69;7005820;28;20241;-82
2022/04/12 06:03:08;;;;;;;6.60;4.20;;;;;;;12.63;47.45;98513.16;7005693;28;20209;-79
2022/04/12 06:06:30;;;;;;;7.27;4.20;;;;;;;12.26;48.73;98517.69;7004695;28;20206;-80
2022/04/12 06:09:51;;;;;;;7.73;4.60;;;;;;;12.26;48.68;98496.06;7005665;28;20230;-80
2022/04/12 06:13:14;;;;;;;5.07;4.27;;;;;;;12.59;48.28;98514.66;7005294;28;20205;-79
2022/04/12 06:16:36;;;;;;;4.63;4.00;;;;;;;12.36;48.18;98504.50;7004302;28;20209;-79
2022/04/12 06:20:02;;;;;;;5.53;3.97;;;;;;;13.05;46.76;98499.53;7004778;28;20230;-80
2022/04/12 06:23:24;;;;;;;6.40;4.60;;;;;;;13.26;46.59;98506.34;7026191;28;20229;-79
2022/04/12 06:26:46;;;;;;;5.23;4.30;;;;;;;13.62;46.36;98512.47;7039868;28;20206;-80
2022/04/12 06:30:10;;;;;;;4.67;4.20;;;;;;;14.30;45.25;98518.28;7051161;28;20223;-79
2022/04/12 06:33:33;;;;;;;6.53;5.77;;;;;;;14.02;45.22;98509.97;7046560;28;20203;-80
2022/04/12 06:36:54;;;;;;;5.93;4.60;;;;;;;14.74;44.69;98504.91;7041745;28;20279;-78
2022/04/12 06:40:19;;;;;;;5.37;4.17;;;;;;;15.81;42.08;98504.06;7039054;28;20703;-78
2022/04/12 06:43:41;;;;;;;4.97;4.20;;;;;;;15.93;41.84;98491.22;7029540;28;20197;-78
2022/04/12 06:47:04;;;;;;;6.07;4.00;;;;;;;16.16;41.45;98496.50;7010125;28;20675;-78
2022/04/12 06:50:27;;;;;;;4.80;4.17;;;;;;;16.15;41.43;98489.41;7035861;28;20592;-78
2022/04/12 06:53:50;;;;;;;6.23;4.20;;;;;;;15.72;41.87;98460.16;7035482;28;20208;-77
2022/04/12 06:57:12;;;;;;;4.40;4.00;;;;;;;16.02;39.77;98489.72;7035497;28;20239;-79
2022/04/12 07:00:34;;;;;;;4.07;3.57;;;;;;;16.83;37.72;98462.66;7035555;28;20314;-78
2022/04/12 07:03:57;;;;;;;7.67;4.00;;;;;;;16.75;36.67;98495.78;7034851;28;20212;-78
2022/04/12 07:07:18;;;;;;;4.53;3.90;;;;;;;17.48;37.06;98482.50;7034842;28;20200;-78
2022/04/12 07:10:45;;;;;;;4.93;3.83;;;;;;;17.59;36.48;98476.94;7027139;28;20237;-78
2022/04/12 07:14:07;;;;;;;3.93;3.53;;;;;;;17.51;35.48;98480.09;7031294;28;20205;-79
2022/04/12 07:17:28;;;;;;;3.83;3.47;;;;;;;17.70;35.29;98469.66;7033804;28;20209;-78
2022/04/12 07:20:53;;;;;;;4.00;3.60;;;;;;;16.74;37.71;98456.81;7034902;28;20266;-77
2022/04/12 07:24:15;;;;;;;3.50;3.20;;;;;;;16.74;37.57;98475.88;7034413;28;20234;-77
2022/04/12 07:27:37;;;;;;;3.63;3.33;;;;;;;17.14;36.54;98461.94;7034342;28;20204;-77
2022/04/12 07:30:59;;;;;;;4.03;3.30;;;;;;;18.83;34.77;98470.78;7033849;28;20371;-78
2022/04/12 07:34:20;;;;;;;5.30;3.30;;;;;;;18.92;34.17;98460.19;7030723;28;20216;-78
2022/04/12 07:37:44;;;;;;;5.40;3.10;;;;;;;19.59;32.55;98467.25;7030296;28;20201;-76
2022/04/12 07:41:05;;;;;;;4.03;3.57;;;;;;;18.83;33.79;98465.34;7020267;28;20222;-77
2022/04/12 07:44:27;;;;;;;4.23;2.87;;;;;;;18.13;34.24;98404.81;7012092;28;20288;-76
2022/04/12 07:47:49;;;;;;;4.77;3.33;;;;;;;18.86;33.98;98456.59;7027210;28;20212;-76
2022/04/12 07:51:10;;;;;;;3.30;2.70;;;;;;;19.52;33.49;98469.41;7032217;28;20213;-79
2022/04/12 07:54:33;;;;;;;3.70;3.40;;;;;;;19.12;34.30;98463.81;7033591;28;20200;-77
2022/04/12 07:57:55;;;;;;;3.87;3.30;;;;;;;19.82;32.71;98465.91;7033046;28;20206;-78
2022/04/12 08:01:17;;;;;;;3.63;3.10;;;;;;;19.43;34.18;98457.38;7033448;28;20316;-77
2022/04/12 08:04:41;;;;;;;3.47;3.13;;;;;;;20.50;32.66;98448.91;7032840;28;20202;-79
2022/04/12 08:08:03;;;;;;;3.37;3.07;;;;;;;19.76;33.21;98469.75;7033105;28;20205;-77
2022/04/12 08:11:26;;;;;;;3.80;3.20;;;;;;;19.90;32.78;98470.84;7033604;28;20230;-78
2022/04/12 08:14:48;;;;;;;3.40;3.00;;;;;;;19.04;34.84;98474.44;7033982;28;20305;-77
2022/04/12 08:18:09;;;;;;;4.60;3.47;;;;;;;19.32;34.25;98476.75;7033064;28;20289;-78
2022/04/12 08:21:32;;;;;;;3.53;3.13;;;;;;;20.71;31.96;98459.59;7033874;28;20758;-78
2022/04/12 08:24:54;;;;;;;3.93;2.80;;;;;;;20.61;31.83;98464.25;7026174;28;20217;-78
2022/04/12 08:28:17;;;;;;;3.53;3.23;;;;;;;20.61;31.62;98456.03;7028831;28;20197;-80
2022/04/12 08:31:39;;;;;;;3.63;3.10;;;;;;;;;;7035402;28;20581;-79
2022/04/12 08:35:01;;;;;;;3.23;2.93;;;;;;;21.55;30.48;98452.91;7034876;28;20205;-80
2022/04/12 08:38:22;;;;;;;3.33;2.63;;;;;;;21.94;30.21;98466.66;7035367;28;20213;-80
2022/04/12 08:41:44;;;;;;;3.90;2.90;;;;;;;21.01;31.33;98448.53;7033808;28;20229;-80
2022/04/12 08:45:08;;;;;;;3.17;2.87;;;;;;;20.49;32.27;98442.66;7032710;28;20723;-79
2022/04/12 08:48:30;;;;;;;4.13;2.97;;;;;;;20.69;31.60;98455.47;7031290;28;20679;-79
2022/04/12 08:51:52;;;;;;;3.90;3.10;;;;;;;20.21;32.62;98445.97;7018905;28;20208;-80
2022/04/12 08:55:13;;;;;;;6.33;3.40;;;;;;;20.70;31.46;98448.91;7025792;28;20216;-80
2022/04/12 08:58:35;;;;;;;2.90;2.70;;;;;;;21.13;30.59;98455.31;7009828;28;20202;-80
2022/04/12 09:01:58;;;;;;;3.10;2.60;;;;;;;21.33;30.13;98449.75;7021442;28;20200;-79
2022/04/12 09:05:22;;;;;;;4.27;2.30;;;;;;;21.33;31.18;98445.38;7032143;28;20202;-79
2022/04/12 09:08:44;;;;;;;2.90;2.60;;;;;;;21.83;29.71;98426.69;7034936;28;20775;-79
2022/04/12 09:12:09;;;;;;;2.90;2.60;;;;;;;21.54;30.33;98451.25;7035261;28;20211;-80
2022/04/12 09:15:31;;;;;;;3.20;2.90;;;;;;;20.52;31.63;98438.53;7034627;28;20646;-78
2022/04/12 09:18:54;;;;;;;4.50;2.60;;;;;;;21.49;30.37;98451.28;7033921;28;20268;-79
2022/04/12 09:22:16;;;;;;;3.33;2.23;;;;;;;22.14;29.23;98461.81;7035848;28;20202;-78
2022/04/12 09:25:53;;;;;;;4.43;2.70;;;;;;;22.54;28.80;98444.19;7033381;28;20211;-78
2022/04/12 09:29:15;;;;;;;2.97;2.67;;;;;;;22.09;28.78;98439.09;7021643;28;20268;-78
2022/04/12 09:32:38;;;;;;;3.20;2.20;;;;;;;21.76;30.22;98448.97;7019129;28;20231;-78
2022/04/12 09:36:01;;;;;;;3.33;2.50;;;;;;;22.65;28.55;98437.50;7015133;28;20225;-77
2022/04/12 09:39:23;;;;;;;2.40;2.20;;;;;;;22.81;28.15;98426.03;7032055;28;20601;-77
2022/04/12 09:42:48;;;;;;;2.27;2.07;;;;;;;23.02;29.36;98430.16;7032116;28;20269;-77
2022/04/12 09:46:14;;;;;;;4.67;2.60;;;;;;;23.01;28.77;98433.22;7030309;28;20208;-76
2022/04/12 09:49:43;;;;;;;3.33;1.93;;;;;;;22.97;28.57;98418.41;7031202;28;20769;-77
2022/04/12 09:53:07;;;;;;;2.97;2.30;;;;;;;23.77;27.31;98422.81;7031326;28;20207;-76
2022/04/12 09:56:30;;;;;;;2.87;2.17;;;;;;;23.64;27.03;98416.13;7020272;28;20212;-77
2022/04/12 09:59:54;;;;;;;2.10;2.00;;;;;;;23.85;27.21;98411.94;7005892;28;20255;-78
2022/04/12 10:03:17;;;;;;;2.53;2.10;;;;;;;23.15;27.72;98415.69;7009997;28;20203;-78
2022/04/12 10:06:41;;;;;;;4.37;2.47;;;;;;;23.73;27.10;98405.25;7010078;28;20715;-77
2022/04/12 10:10:05;;;;;;;3.33;2.30;;;;;;;24.14;26.00;98396.03;7010944;28;20240;-77
2022/04/12 10:13:27;;;;;;;3.37;2.40;;;;;;;24.37;24.88;98402.53;7021037;28;20203;-77
2022/04/12 10:16:49;;;;;;;2.40;2.03;;;;;;;24.30;26.13;98388.34;7037208;28;20228;-77
2022/04/12 10:20:11;;;;;;;2.83;2.00;;;;;;;26.08;23.89;98387.50;7037135;28;20232;-77
2022/04/12 10:23:34;;;;;;;2.30;2.10;;;;;;;26.58;23.57;98386.19;7036900;28;20566;-77
2022/04/12 10:26:57;;;;;;;2.20;2.00;;;;;;;26.35;24.33;98375.47;7035978;28;20268;-77
2022/04/12 10:30:25;;;;;;;3.97;1.90;;;;;;;26.96;22.58;98394.81;7034968;28;20247;-77
2022/04/12 10:34:04;;;;;;;2.10;1.90;;;;;;;27.29;21.69;98384.97;7039376;28;20201;-78
2022/04/12 10:37:26;;;;;;;2.23;1.77;;;;;;;27.17;22.65;98376.50;7041780;28;20258;-77
2022/04/12 10:40:49;;;;;;;5.33;1.83;;;;;;;27.72;22.58;98372.78;7042070;28;20240;-78
2022/04/12 10:44:19;;;;;;;4.20;2.20;;;;;;;27.80;21.62;98372.03;7037899;28;20213;-78
2022/04/12 10:47:43;;;;;;;3.47;2.10;;;;;;;28.05;21.30;98365.63;7023371;28;20567;-79
2022/04/12 10:51:06;;;;;;;3.27;1.87;;;;;;;28.17;21.81;98359.41;7038494;28;20221;-79
2022/04/12 10:54:29;;;;;;;3.70;1.93;;;;;;;28.60;19.62;98365.69;7038693;28;20198;-80
2022/04/12 10:57:52;;;;;;;1.60;1.47;;;;;;;28.42;18.33;98339.94;7039789;28;20207;-80
2022/04/12 11:01:28;;;;;;;3.77;1.40;;;;;;;28.44;19.26;98331.31;7031123;28;20231;-79
2022/04/12 11:04:50;;;;;;;2.87;1.70;;;;;;;28.88;18.95;98345.47;7017364;28;20195;-79
2022/04/12 11:08:46;;;;;;;1.70;1.60;;;;;;;28.54;18.18;98331.75;7018063;28;20235;-79
2022/04/12 11:12:07;;;;;;;2.17;1.50;;;;;;;28.46;18.51;98324.28;7048353;28;20217;-79
2022/04/12 11:15:30;;;;;;;2.83;1.60;;;;;;;27.57;19.80;98328.97;7038004;28;20207;-79
2022/04/12 11:18:55;;;;;;;2.70;2.00;;;;;;;28.44;19.07;98323.00;7031102;28;20275;-78
2022/04/12 11:22:18;;;;;;;1.47;1.37;;;;;;;28.54;18.81;98303.22;7034572;28;20584;-78
2022/04/12 11:25:48;;;;;;;1.40;1.30;;;;;;;28.63;18.52;98309.50;7027677;28;20196;-78
2022/04/12 11:29:10;;;;;;;1.80;1.70;;;;;;;28.45;19.91;98306.03;7025707;28;20238;-78
2022/04/12 11:32:33;;;;;;;4.73;1.53;;;;;;;28.20;19.51;98300.53;7035157;28;20204;-78
2022/04/12 11:35:56;;;;;;;1.77;1.67;;;;;;;28.86;19.59;98308.91;7033904;28;20566;-78
2022/04/12 11:39:18;;;;;;;2.73;1.50;;;;;;;28.97;19.26;98304.63;7035010;28;20244;-78
2022/04/12 11:42:40;;;;;;;2.03;1.80;;;;;;;28.53;20.41;98315.44;7035221;28;20597;-78
2022/04/12 11:46:02;;;;;;;2.50;1.90;;;;;;;28.40;20.57;98308.97;7025355;28;20301;-78
2022/04/12 11:49:28;;;;;;;3.13;1.70;;;;;;;28.30;19.14;98273.25;7036122;28;20804;-78
2022/04/12 11:52:51;;;;;;;4.07;1.80;;;;;;;28.45;20.15;98296.88;7037162;28;20572;-78
2022/04/12 11:56:12;;;;;;;2.07;1.47;;;;;;;28.86;18.84;98310.88;7035471;28;20212;-78
2022/04/12 11:59:36;;;;;;;1.60;1.50;;;;;;;28.71;19.42;98317.00;7035946;28;20248;-79
2022/04/12 12:02:57;;;;;;;3.60;1.70;;;;;;;28.39;20.04;98309.28;7035428;28;20640;-79
2022/04/12 12:06:19;;;;;;;1.73;1.53;;;;;;;28.11;19.43;98308.88;7035061;28;20202;-79
2022/04/12 12:09:51;;;;;;;2.17;1.30;;;;;;;28.69;18.82;98302.63;7034908;28;20253;-79
2022/04/12 12:13:13;;;;;;;1.57;1.37;;;;;;;28.71;19.01;98292.81;7034886;28;20195;-79
2022/04/12 12:16:35;;;;;;;1.43;1.30;;;;;;;28.56;19.61;98306.47;7034785;28;20202;-78
2022/04/12 12:19:56;;;;;;;1.63;1.30;;;;;;;27.41;19.77;98288.25;7020774;28;20806;-78
2022/04/12 12:23:18;;;;;;;1.60;1.30;;;;;;;26.73;21.44;98288.94;7005361;28;20213;-79
2022/04/12 12:26:41;;;;;;;3.13;1.60;;;;;;;27.21;20.13;98289.72;7006560;28;20235;-79
2022/04/12 12:30:07;;;;;;;2.33;1.57;;;;;;;27.97;20.34;98275.00;7006842;28;20246;-79
2022/04/12 12:33:37;;;;;;;2.57;1.20;;;;;;;28.01;20.62;98275.97;7005780;28;20606;-79
2022/04/12 12:36:59;;;;;;;3.67;1.90;;;;;;;28.14;20.78;98301.84;7015769;28;20194;-79
2022/04/12 12:40:22;;;;;;;1.40;1.30;;;;;;;27.52;19.52;98272.91;7034354;28;20233;-80
2022/04/12 12:43:45;;;;;;;2.90;1.70;;;;;;;28.75;19.71;98281.88;7029635;28;20698;-79
2022/04/12 12:47:09;;;;;;;1.90;1.60;;;;;;;28.80;19.60;98288.06;7016581;28;20204;-78
2022/04/12 12:50:31;;;;;;;4.13;1.60;;;;;;;28.43;19.37;98293.63;7034161;28;20223;-78
2022/04/12 12:54:00;;;;;;;2.33;1.57;;;;;;;28.33;19.13;98289.25;7028712;28;20673;-78
2022/04/12 12:57:36;;;;;;;1.60;1.50;;;;;;;28.40;19.61;98245.19;7032238;28;20286;-77
2022/04/12 13:01:04;;;;;;;1.40;1.27;;;;;;;28.83;19.22;98275.47;7033553;28;20704;-78
2022/04/12 13:04:26;;;;;;;1.70;1.30;;;;;;;28.50;19.17;98280.06;7033974;28;20201;-78
2022/04/12 13:07:55;;;;;;;2.30;1.47;;;;;;;27.76;19.80;98276.81;7033278;28;20725;-79
2022/04/12 13:11:23;;;;;;;3.47;1.67;;;;;;;28.01;20.15;98278.72;7033745;28;20251;-77
2022/04/12 13:14:45;;;;;;;1.77;1.40;;;;;;;28.72;19.94;98269.47;7034426;28;20553;-78
2022/04/12 13:18:08;;;;;;;1.30;1.20;;;;;;;28.89;20.16;98277.69;7032684;28;20232;-78
2022/04/12 13:21:29;;;;;;;1.67;1.53;;;;;;;28.46;19.97;98266.03;7031950;28;20246;-78
2022/04/12 13:24:51;;;;;;;1.67;1.57;;;;;;;28.31;18.77;98261.00;7032557;28;20243;-79
2022/04/12 13:28:14;;;;;;;3.60;1.70;;;;;;;27.37;19.37;98270.66;7016410;28;20308;-78
2022/04/12 13:31:36;;;;;;;2.97;1.50;;;;;;;27.68;18.79;98251.88;7005267;28;20632;-78
2022/04/12 13:34:59;;;;;;;2.20;1.50;;;;;;;26.92;21.02;98270.13;7008319;28;20208;-77
2022/04/12 13:38:21;;;;;;;1.50;1.40;;;;;;;27.75;19.92;98271.59;7032426;28;20724;-78
2022/04/12 13:41:43;;;;;;;2.70;1.60;;;;;;;26.43;21.04;98266.88;7032876;28;20230;-78
2022/04/12 13:45:06;;;;;;;2.47;1.50;;;;;;;27.35;20.93;98259.91;7016511;28;20208;-78
2022/04/12 13:48:28;;;;;;;3.73;1.60;;;;;;;27.97;20.05;98244.53;7003767;28;20230;-78
2022/04/12 13:51:51;;;;;;;2.63;1.30;;;;;;;26.60;19.54;98258.66;7004706;28;20351;-78
2022/04/12 13:55:13;;;;;;;1.73;1.20;;;;;;;26.47;20.32;98235.50;7030125;28;20209;-78
2022/04/12 13:58:35;;;;;;;3.03;1.27;;;;;;;26.59;20.72;98255.06;7031970;28;20207;-78
2022/04/12 14:01:57;;;;;;;2.93;1.57;;;;;;;25.88;20.68;98232.47;7029808;28;20221;-78
2022/04/12 14:05:21;;;;;;;1.53;1.43;;;;;;;26.73;21.21;98241.91;7025903;28;20200;-78
2022/04/12 14:08:44;;;;;;;2.30;1.27;;;;;;;26.75;19.94;98242.44;7031981;28;20213;-78
2022/04/12 14:12:06;;;;;;;1.70;1.40;;;;;;;27.42;19.93;98251.13;7032218;28;20234;-78
2022/04/12 14:15:27;;;;;;;1.97;1.37;;;;;;;27.74;19.87;98243.09;7032622;28;20207;-78
2022/04/12 14:18:49;;;;;;;1.27;1.17;;;;;;;27.81;19.76;98243.41;7031686;28;20325;-78
2022/04/12 14:22:11;;;;;;;1.50;1.40;;;;;;;27.14;19.41;98238.72;7031650;28;20231;-78
2022/04/12 14:25:34;;;;;;;3.47;1.10;;;;;;;26.23;21.01;98256.38;7032704;28;20210;-78
2022/04/12 14:28:56;;;;;;;3.43;1.37;;;;;;;26.51;20.81;98244.78;7030730;28;20227;-78
2022/04/12 14:32:18;;;;;;;1.40;1.07;;;;;;;27.05;20.87;98248.97;7032401;28;20202;-77
2022/04/12 14:35:40;;;;;;;1.83;1.60;;;;;;;27.09;18.90;98264.63;7012811;28;20213;-78
2022/04/12 14:39:01;;;;;;;1.77;1.20;;;;;;;26.26;20.91;98251.03;7008003;28;20224;-77
2022/04/12 14:42:24;;;;;;;1.97;1.20;;;;;;;25.80;21.45;98247.88;7004755;28;20701;-78
2022/04/12 14:45:46;;;;;;;1.70;1.27;;;;;;;25.36;21.56;98236.06;7023743;28;20201;-77
2022/04/12 14:49:08;;;;;;;2.50;1.57;;;;;;;26.66;20.47;98263.72;7036181;28;20267;-78
2022/04/12 14:52:30;;;;;;;2.53;1.30;;;;;;;25.76;21.27;98249.63;7035951;28;20212;-78
2022/04/12 14:55:52;;;;;;;4.70;1.63;;;;;;;25.63;21.78;98258.00;7032055;28;20206;-78
2022/04/12 14:59:15;;;;;;;3.10;1.83;;;;;;;25.48;22.00;98248.16;7015997;28;20227;-78
2022/04/12 15:02:36;;;;;;;3.37;1.73;;;;;;;25.48;22.67;98250.91;7034810;28;20291;-78
2022/04/12 15:05:58;;;;;;;1.70;1.60;;;;;;;25.70;22.85;98250.91;7035881;28;20210;-78
2022/04/12 15:09:19;;;;;;;4.63;1.50;;;;;;;26.02;23.21;98253.38;7036299;28;20234;-78
2022/04/12 15:12:41;;;;;;;1.83;1.70;;;;;;;25.56;23.54;98254.88;7036709;28;20555;-78
2022/04/12 15:16:04;;;;;;;3.27;1.70;;;;;;;26.50;23.61;98239.56;7035960;28;20289;-77
2022/04/12 15:19:26;;;;;;;3.03;2.03;;;;;;;26.98;22.88;98232.84;7037316;28;20223;-78
2022/04/12 15:22:48;;;;;;;2.10;1.90;;;;;;;26.31;23.01;98247.31;7037157;28;20226;-78
2022/04/12 15:26:10;;;;;;;2.50;1.47;;;;;;;26.93;22.96;98238.53;7028445;28;20213;-78
2022/04/12 15:29:31;;;;;;;2.00;1.70;;;;;;;26.02;24.01;98253.38;7027657;28;20388;-78
2022/04/12 15:32:54;;;;;;;3.50;2.10;;;;;;;25.57;25.25;98249.03;7008299;28;20725;-78
2022/04/12 15:36:16;;;;;;;3.97;2.30;;;;;;;25.96;25.19;98248.31;7016485;28;20243;-77
2022/04/12 15:39:38;;;;;;;3.17;2.37;;;;;;;25.42;25.96;98246.66;7011015;28;20230;-77
2022/04/12 15:43:05;;;;;;;3.47;2.10;;;;;;;25.18;26.15;98248.88;7042287;28;20229;-78
2022/04/12 15:46:27;;;;;;;2.27;1.93;;;;;;;25.41;26.88;98252.47;7037192;28;20256;-77
2022/04/12 15:49:50;;;;;;;2.63;2.30;;;;;;;25.00;26.90;98265.56;7040979;28;20225;-77
2022/04/12 15:53:11;;;;;;;2.97;2.57;;;;;;;24.97;27.09;98250.50;7034965;28;20542;-78
2022/04/12 15:56:33;;;;;;;4.50;2.20;;;;;;;25.23;26.87;98234.94;7021744;28;20198;-78